sensor_id;sensor_type;location;lat;lon;timestamp;pressure;altitude;pressure_sealevel;temperature;humidity
10366;BME280;5229;41.820;23.490;2023-04-07T00:00:13;89496.41;;;3.12;44.63
10366;BME280;5229;41.820;23.490;2023-04-07T00:02:40;89501.06;;;3.10;45.18
10366;BME280;5229;41.820;23.490;2023-04-07T00:05:07;89495.44;;;3.08;44.73
10366;BME280;5229;41.820;23.490;2023-04-07T00:07:34;89498.53;;;3.05;44.77
10366;BME280;5229;41.820;23.490;2023-04-07T00:10:01;89505.25;;;3.01;44.25
10366;BME280;5229;41.820;23.490;2023-04-07T00:12:29;89500.13;;;3.01;44.52
10366;BME280;5229;41.820;23.490;2023-04-07T00:14:55;89502.94;;;2.99;44.89
10366;BME280;5229;41.820;23.490;2023-04-07T00:17:22;89510.91;;;2.98;44.46
10366;BME280;5229;41.820;23.490;2023-04-07T00:19:49;89505.56;;;2.94;44.68
10366;BME280;5229;41.820;23.490;2023-04-07T00:22:16;89506.56;;;2.93;44.85
10366;BME280;5229;41.820;23.490;2023-04-07T00:24:43;89510.19;;;2.92;44.91
10366;BME280;5229;41.820;23.490;2023-04-07T00:27:10;89506.91;;;2.87;44.50
10366;BME280;5229;41.820;23.490;2023-04-07T00:29:38;89512.28;;;2.85;44.45
10366;BME280;5229;41.820;23.490;2023-04-07T00:32:05;89512.81;;;2.82;44.46
10366;BME280;5229;41.820;23.490;2023-04-07T00:34:32;89512.63;;;2.79;44.83
10366;BME280;5229;41.820;23.490;2023-04-07T00:36:58;89512.09;;;2.77;44.31
10366;BME280;5229;41.820;23.490;2023-04-07T00:39:25;89513.16;;;2.76;44.32
10366;BME280;5229;41.820;23.490;2023-04-07T00:41:52;89512.66;;;2.74;44.38
10366;BME280;5229;41.820;23.490;2023-04-07T00:44:20;89518.81;;;2.73;44.96
10366;BME280;5229;41.820;23.490;2023-04-07T00:46:48;89515.50;;;2.72;44.42
10366;BME280;5229;41.820;23.490;2023-04-07T00:49:15;89520.88;;;2.71;44.88
10366;BME280;5229;41.820;23.490;2023-04-07T00:51:43;89524.44;;;2.70;44.31
10366;BME280;5229;41.820;23.490;2023-04-07T00:54:11;89521.41;;;2.68;44.41
10366;BME280;5229;41.820;23.490;2023-04-07T00:56:38;89515.31;;;2.64;44.67
10366;BME280;5229;41.820;23.490;2023-04-07T00:59:05;89527.06;;;2.65;44.89
10366;BME280;5229;41.820;23.490;2023-04-07T01:01:35;89521.44;;;2.63;44.38
10366;BME280;5229;41.820;23.490;2023-04-07T01:04:11;89520.97;;;2.61;45.04
10366;BME280;5229;41.820;23.490;2023-04-07T01:06:43;89521.97;;;2.60;44.73
10366;BME280;5229;41.820;23.490;2023-04-07T01:09:18;89522.25;;;2.58;44.61
10366;BME280;5229;41.820;23.490;2023-04-07T01:11:53;89523.28;;;2.57;44.47
10366;BME280;5229;41.820;23.490;2023-04-07T01:14:22;89517.91;;;2.59;45.01
10366;BME280;5229;41.820;23.490;2023-04-07T01:16:51;89517.16;;;2.58;44.65
10366;BME280;5229;41.820;23.490;2023-04-07T01:19:31;89519.97;;;2.57;44.92
10366;BME280;5229;41.820;23.490;2023-04-07T01:21:59;89524.06;;;2.58;44.73
10366;BME280;5229;41.820;23.490;2023-04-07T01:24:41;89514.59;;;2.58;44.59
10366;BME280;5229;41.820;23.490;2023-04-07T01:27:20;89520.72;;;2.57;45.00
10366;BME280;5229;41.820;23.490;2023-04-07T01:29:52;89511.00;;;2.54;45.00
10366;BME280;5229;41.820;23.490;2023-04-07T01:32:20;89520.75;;;2.52;45.06
10366;BME280;5229;41.820;23.490;2023-04-07T01:34:50;89525.63;;;2.54;44.67
10366;BME280;5229;41.820;23.490;2023-04-07T01:37:18;89524.56;;;2.55;44.46
10366;BME280;5229;41.820;23.490;2023-04-07T01:39:45;89526.88;;;2.56;44.61
10366;BME280;5229;41.820;23.490;2023-04-07T01:42:13;89522.03;;;2.55;44.76
10366;BME280;5229;41.820;23.490;2023-04-07T01:44:41;89526.38;;;2.54;44.24
10366;BME280;5229;41.820;23.490;2023-04-07T01:47:10;89517.44;;;2.52;45.15
10366;BME280;5229;41.820;23.490;2023-04-07T01:49:38;89522.56;;;2.52;44.31
10366;BME280;5229;41.820;23.490;2023-04-07T01:52:07;89518.47;;;2.51;44.98
10366;BME280;5229;41.820;23.490;2023-04-07T01:54:34;89525.09;;;2.52;44.43
10366;BME280;5229;41.820;23.490;2023-04-07T01:57:02;89524.09;;;2.53;44.93
10366;BME280;5229;41.820;23.490;2023-04-07T01:59:28;89519.72;;;2.53;44.85
10366;BME280;5229;41.820;23.490;2023-04-07T02:01:55;89525.63;;;2.54;45.13
10366;BME280;5229;41.820;23.490;2023-04-07T02:04:30;89525.63;;;2.54;45.18
10366;BME280;5229;41.820;23.490;2023-04-07T02:07:02;89523.09;;;2.49;44.87
10366;BME280;5229;41.820;23.490;2023-04-07T02:09:32;89525.16;;;2.47;45.05
10366;BME280;5229;41.820;23.490;2023-04-07T02:12:01;89525.63;;;2.49;44.68
10366;BME280;5229;41.820;23.490;2023-04-07T02:14:31;89522.81;;;2.50;44.89
10366;BME280;5229;41.820;23.490;2023-04-07T02:17:00;89512.84;;;2.49;44.69
10366;BME280;5229;41.820;23.490;2023-04-07T02:19:30;89531.03;;;2.47;45.11
10366;BME280;5229;41.820;23.490;2023-04-07T02:22:00;89519.06;;;2.43;45.02
10366;BME280;5229;41.820;23.490;2023-04-07T02:24:28;89519.06;;;2.43;44.53
10366;BME280;5229;41.820;23.490;2023-04-07T02:26:55;89515.19;;;2.45;44.75
10366;BME280;5229;41.820;23.490;2023-04-07T02:29:21;89515.47;;;2.44;44.79
10366;BME280;5229;41.820;23.490;2023-04-07T02:31:48;89519.06;;;2.43;44.64
10366;BME280;5229;41.820;23.490;2023-04-07T02:34:15;89522.63;;;2.42;45.17
10366;BME280;5229;41.820;23.490;2023-04-07T02:36:43;89518.28;;;2.42;44.75
10366;BME280;5229;41.820;23.490;2023-04-07T02:39:11;89519.31;;;2.41;44.84
10366;BME280;5229;41.820;23.490;2023-04-07T02:41:38;89524.69;;;2.40;45.33
10366;BME280;5229;41.820;23.490;2023-04-07T02:44:05;89513.44;;;2.41;45.42
10366;BME280;5229;41.820;23.490;2023-04-07T02:46:31;89518.53;;;2.41;45.03
10366;BME280;5229;41.820;23.490;2023-04-07T02:48:58;89511.13;;;2.39;45.20
10366;BME280;5229;41.820;23.490;2023-04-07T02:51:25;89508.56;;;2.39;44.95
10366;BME280;5229;41.820;23.490;2023-04-07T02:53:54;89515.22;;;2.40;45.34
10366;BME280;5229;41.820;23.490;2023-04-07T02:56:21;89522.13;;;2.40;45.16
10366;BME280;5229;41.820;23.490;2023-04-07T02:58:48;89515.00;;;2.37;44.65
10366;BME280;5229;41.820;23.490;2023-04-07T03:01:14;89508.34;;;2.36;45.18
10366;BME280;5229;41.820;23.490;2023-04-07T03:03:41;89512.44;;;2.37;44.99
10366;BME280;5229;41.820;23.490;2023-04-07T03:06:09;89508.88;;;2.33;44.98
10366;BME280;5229;41.820;23.490;2023-04-07T03:08:36;89517.03;;;2.35;45.21
10366;BME280;5229;41.820;23.490;2023-04-07T03:11:04;89519.88;;;2.33;44.63
10366;BME280;5229;41.820;23.490;2023-04-07T03:13:31;89515.78;;;2.32;45.42
10366;BME280;5229;41.820;23.490;2023-04-07T03:15:57;89523.47;;;2.32;45.20
10366;BME280;5229;41.820;23.490;2023-04-07T03:18:24;89524.22;;;2.33;45.35
10366;BME280;5229;41.820;23.490;2023-04-07T03:20:51;89522.72;;;2.32;44.97
10366;BME280;5229;41.820;23.490;2023-04-07T03:23:19;89517.59;;;2.32;45.47
10366;BME280;5229;41.820;23.490;2023-04-07T03:25:48;89524.75;;;2.30;45.24
10366;BME280;5229;41.820;23.490;2023-04-07T03:28:16;89524.75;;;2.30;45.08
10366;BME280;5229;41.820;23.490;2023-04-07T03:30:43;89526.81;;;2.28;45.11
10366;BME280;5229;41.820;23.490;2023-04-07T03:33:09;89527.59;;;2.28;45.09
10366;BME280;5229;41.820;23.490;2023-04-07T03:35:36;89526.06;;;2.27;44.92
10366;BME280;5229;41.820;23.490;2023-04-07T03:38:03;89528.84;;;2.31;44.84
10366;BME280;5229;41.820;23.490;2023-04-07T03:40:30;89529.84;;;2.35;44.71
10366;BME280;5229;41.820;23.490;2023-04-07T03:42:57;89529.31;;;2.38;44.88
10366;BME280;5229;41.820;23.490;2023-04-07T03:45:26;89539.00;;;2.41;45.29
10366;BME280;5229;41.820;23.490;2023-04-07T03:47:52;89536.44;;;2.41;44.83
10366;BME280;5229;41.820;23.490;2023-04-07T03:50:19;89538.53;;;2.39;45.07
10366;BME280;5229;41.820;23.490;2023-04-07T03:52:46;89537.50;;;2.35;44.65
10366;BME280;5229;41.820;23.490;2023-04-07T03:55:13;89546.75;;;2.31;45.25
10366;BME280;5229;41.820;23.490;2023-04-07T03:57:40;89540.09;;;2.30;45.04
10366;BME280;5229;41.820;23.490;2023-04-07T04:00:08;89549.56;;;2.29;44.82
10366;BME280;5229;41.820;23.490;2023-04-07T04:02:36;89546.00;;;2.25;45.24
10366;BME280;5229;41.820;23.490;2023-04-07T04:05:03;89546.53;;;2.27;44.84
10366;BME280;5229;41.820;23.490;2023-04-07T04:07:30;89551.63;;;2.27;45.27
10366;BME280;5229;41.820;23.490;2023-04-07T04:09:58;89551.38;;;2.24;44.94
10366;BME280;5229;41.820;23.490;2023-04-07T04:12:24;89560.34;;;2.26;45.25
10366;BME280;5229;41.820;23.490;2023-04-07T04:14:51;89551.91;;;2.26;45.17
10366;BME280;5229;41.820;23.490;2023-04-07T04:17:18;89551.63;;;2.27;45.09
10366;BME280;5229;41.820;23.490;2023-04-07T04:19:46;89562.13;;;2.26;44.93
10366;BME280;5229;41.820;23.490;2023-04-07T04:22:13;89560.34;;;2.26;45.24
10366;BME280;5229;41.820;23.490;2023-04-07T04:24:40;89566.72;;;2.29;44.84
10366;BME280;5229;41.820;23.490;2023-04-07T04:27:07;89568.97;;;2.35;44.95
10366;BME280;5229;41.820;23.490;2023-04-07T04:29:33;89568.13;;;2.45;44.47
10366;BME280;5229;41.820;23.490;2023-04-07T04:32:00;89560.41;;;2.55;44.99
10366;BME280;5229;41.820;23.490;2023-04-07T04:34:27;89561.84;;;2.66;44.74
10366;BME280;5229;41.820;23.490;2023-04-07T04:36:55;89565.31;;;2.80;44.04
10366;BME280;5229;41.820;23.490;2023-04-07T04:39:22;89565.78;;;2.87;43.98
10366;BME280;5229;41.820;23.490;2023-04-07T04:41:48;89570.56;;;2.98;43.90
10366;BME280;5229;41.820;23.490;2023-04-07T04:44:15;89574.78;;;3.13;44.09
10366;BME280;5229;41.820;23.490;2023-04-07T04:46:42;89575.13;;;3.30;43.77
10366;BME280;5229;41.820;23.490;2023-04-07T04:49:09;89582.13;;;3.48;43.14
10366;BME280;5229;41.820;23.490;2023-04-07T04:51:35;89580.66;;;3.66;42.98
10366;BME280;5229;41.820;23.490;2023-04-07T04:54:04;89579.72;;;3.80;42.75
10366;BME280;5229;41.820;23.490;2023-04-07T04:56:31;89586.72;;;3.98;42.90
10366;BME280;5229;41.820;23.490;2023-04-07T04:58:58;89585.47;;;4.14;42.58
10366;BME280;5229;41.820;23.490;2023-04-07T05:01:24;89593.75;;;4.30;42.01
10366;BME280;5229;41.820;23.490;2023-04-07T05:03:51;89585.16;;;4.39;41.66
10366;BME280;5229;41.820;23.490;2023-04-07T05:06:18;89588.00;;;4.56;41.64
10366;BME280;5229;41.820;23.490;2023-04-07T05:08:45;89585.22;;;4.71;41.61
10366;BME280;5229;41.820;23.490;2023-04-07T05:11:13;89586.00;;;4.90;40.96
10366;BME280;5229;41.820;23.490;2023-04-07T05:13:40;89591.94;;;5.04;40.63
10366;BME280;5229;41.820;23.490;2023-04-07T05:16:07;89584.34;;;5.13;40.40
10366;BME280;5229;41.820;23.490;2023-04-07T05:18:34;89586.78;;;5.36;40.67
10366;BME280;5229;41.820;23.490;2023-04-07T05:21:00;89591.50;;;5.61;39.88
10366;BME280;5229;41.820;23.490;2023-04-07T05:23:27;89579.44;;;5.75;39.82
10366;BME280;5229;41.820;23.490;2023-04-07T05:25:54;89587.72;;;5.99;39.31
10366;BME280;5229;41.820;23.490;2023-04-07T05:28:22;89592.41;;;6.25;39.53
10366;BME280;5229;41.820;23.490;2023-04-07T05:30:50;89597.59;;;6.60;39.28
10366;BME280;5229;41.820;23.490;2023-04-07T05:33:16;89594.91;;;7.01;38.59
10366;BME280;5229;41.820;23.490;2023-04-07T05:35:43;89602.97;;;7.43;37.72
10366;BME280;5229;41.820;23.490;2023-04-07T05:38:10;89591.41;;;8.02;37.00
10366;BME280;5229;41.820;23.490;2023-04-07T05:40:39;89595.59;;;8.67;36.39
10366;BME280;5229;41.820;23.490;2023-04-07T05:43:05;89601.09;;;9.34;35.48
10366;BME280;5229;41.820;23.490;2023-04-07T05:45:33;89605.63;;;10.34;34.04
10366;BME280;5229;41.820;23.490;2023-04-07T05:48:00;89606.06;;;11.23;32.67
10366;BME280;5229;41.820;23.490;2023-04-07T05:50:27;89607.31;;;11.79;32.11
10366;BME280;5229;41.820;23.490;2023-04-07T05:52:54;89604.38;;;11.80;31.36
10366;BME280;5229;41.820;23.490;2023-04-07T05:55:20;89602.88;;;11.38;32.41
10366;BME280;5229;41.820;23.490;2023-04-07T05:57:47;89605.38;;;10.85;32.65
10366;BME280;5229;41.820;23.490;2023-04-07T06:00:16;89608.41;;;10.29;33.27
10366;BME280;5229;41.820;23.490;2023-04-07T06:02:45;89603.78;;;9.89;33.87
10366;BME280;5229;41.820;23.490;2023-04-07T06:05:12;89614.03;;;9.68;33.75
10366;BME280;5229;41.820;23.490;2023-04-07T06:07:39;89607.94;;;9.64;33.95
10366;BME280;5229;41.820;23.490;2023-04-07T06:10:07;89608.53;;;9.78;33.50
10366;BME280;5229;41.820;23.490;2023-04-07T06:12:34;89604.63;;;10.18;34.11
10366;BME280;5229;41.820;23.490;2023-04-07T06:15:00;89605.81;;;11.16;32.31
10366;BME280;5229;41.820;23.490;2023-04-07T06:17:27;89613.63;;;12.47;30.86
10366;BME280;5229;41.820;23.490;2023-04-07T06:19:56;89608.38;;;14.10;29.01
10366;BME280;5229;41.820;23.490;2023-04-07T06:22:22;89618.53;;;15.89;27.02
10366;BME280;5229;41.820;23.490;2023-04-07T06:24:49;89621.03;;;17.33;25.44
10366;BME280;5229;41.820;23.490;2023-04-07T06:27:17;89625.16;;;18.42;24.74
10366;BME280;5229;41.820;23.490;2023-04-07T06:29:43;89628.88;;;19.68;23.67
10366;BME280;5229;41.820;23.490;2023-04-07T06:32:10;89635.44;;;20.77;22.46
10366;BME280;5229;41.820;23.490;2023-04-07T06:34:38;89634.06;;;21.53;21.59
10366;BME280;5229;41.820;23.490;2023-04-07T06:37:06;89640.34;;;22.40;20.92
10366;BME280;5229;41.820;23.490;2023-04-07T06:39:33;89636.94;;;23.19;20.42
10366;BME280;5229;41.820;23.490;2023-04-07T06:41:59;89629.50;;;24.05;19.76
10366;BME280;5229;41.820;23.490;2023-04-07T06:44:26;89637.94;;;24.71;18.57
10366;BME280;5229;41.820;23.490;2023-04-07T06:46:53;89642.25;;;25.48;17.99
10366;BME280;5229;41.820;23.490;2023-04-07T06:49:20;89648.19;;;26.28;17.70
10366;BME280;5229;41.820;23.490;2023-04-07T06:51:47;89645.44;;;26.78;17.04
10366;BME280;5229;41.820;23.490;2023-04-07T06:54:16;89640.28;;;27.26;16.58
10366;BME280;5229;41.820;23.490;2023-04-07T06:56:43;89638.13;;;27.88;16.18
10366;BME280;5229;41.820;23.490;2023-04-07T06:59:10;89640.63;;;28.44;15.74
10366;BME280;5229;41.820;23.490;2023-04-07T07:01:36;89654.78;;;28.85;15.57
10366;BME280;5229;41.820;23.490;2023-04-07T07:04:03;89652.06;;;29.01;14.77
10366;BME280;5229;41.820;23.490;2023-04-07T07:06:31;89649.94;;;29.50;14.40
10366;BME280;5229;41.820;23.490;2023-04-07T07:08:58;89670.50;;;30.03;14.58
10366;BME280;5229;41.820;23.490;2023-04-07T07:11:26;89665.28;;;30.71;14.21
10366;BME280;5229;41.820;23.490;2023-04-07T07:13:53;89659.09;;;31.17;13.89
10366;BME280;5229;41.820;23.490;2023-04-07T07:16:20;89668.72;;;31.49;13.48
10366;BME280;5229;41.820;23.490;2023-04-07T07:18:48;89659.44;;;31.71;13.00
10366;BME280;5229;41.820;23.490;2023-04-07T07:21:16;89664.72;;;32.23;12.65
10366;BME280;5229;41.820;23.490;2023-04-07T07:23:43;89668.59;;;32.62;12.49
10366;BME280;5229;41.820;23.490;2023-04-07T07:26:10;89677.91;;;33.06;12.04
10366;BME280;5229;41.820;23.490;2023-04-07T07:28:38;89667.00;;;33.28;11.54
10366;BME280;5229;41.820;23.490;2023-04-07T07:31:08;89680.13;;;33.62;11.43
10366;BME280;5229;41.820;23.490;2023-04-07T07:33:37;89676.94;;;33.90;11.44
10366;BME280;5229;41.820;23.490;2023-04-07T07:36:05;89677.00;;;34.14;10.85
10366;BME280;5229;41.820;23.490;2023-04-07T07:38:32;89677.66;;;34.41;11.08
10366;BME280;5229;41.820;23.490;2023-04-07T07:40:59;89685.41;;;34.72;10.76
10366;BME280;5229;41.820;23.490;2023-04-07T07:43:25;89686.44;;;34.83;10.78
10366;BME280;5229;41.820;23.490;2023-04-07T07:45:54;89678.00;;;34.58;10.39
10366;BME280;5229;41.820;23.490;2023-04-07T07:48:20;89679.00;;;34.69;10.84
10366;BME280;5229;41.820;23.490;2023-04-07T07:50:47;89672.78;;;34.87;10.64
10366;BME280;5229;41.820;23.490;2023-04-07T07:53:15;89681.81;;;34.75;10.17
10366;BME280;5229;41.820;23.490;2023-04-07T07:55:41;89674.25;;;34.64;10.68
10366;BME280;5229;41.820;23.490;2023-04-07T07:58:08;89676.72;;;34.53;10.24
10366;BME280;5229;41.820;23.490;2023-04-07T08:00:35;89676.72;;;34.53;10.22
10366;BME280;5229;41.820;23.490;2023-04-07T08:03:03;89679.63;;;34.41;10.45
10366;BME280;5229;41.820;23.490;2023-04-07T08:05:30;89678.53;;;34.47;10.16
10366;BME280;5229;41.820;23.490;2023-04-07T08:07:57;89673.84;;;34.80;10.47
10366;BME280;5229;41.820;23.490;2023-04-07T08:10:24;89676.13;;;35.20;9.89
10366;BME280;5229;41.820;23.490;2023-04-07T08:12:51;89676.13;;;35.20;10.37
10366;BME280;5229;41.820;23.490;2023-04-07T08:15:18;89674.44;;;35.08;10.26
10366;BME280;5229;41.820;23.490;2023-04-07T08:17:45;89667.25;;;34.58;9.80
10366;BME280;5229;41.820;23.490;2023-04-07T08:20:13;89667.38;;;34.31;10.03
10366;BME280;5229;41.820;23.490;2023-04-07T08:22:40;89663.03;;;34.33;10.47
10366;BME280;5229;41.820;23.490;2023-04-07T08:25:08;89666.03;;;34.35;10.82
10366;BME280;5229;41.820;23.490;2023-04-07T08:27:35;89670.28;;;34.51;10.16
10366;BME280;5229;41.820;23.490;2023-04-07T08:30:03;89656.47;;;34.25;10.61
10366;BME280;5229;41.820;23.490;2023-04-07T08:32:35;89656.44;;;33.93;10.72
10366;BME280;5229;41.820;23.490;2023-04-07T08:35:02;89662.00;;;33.71;10.85
10366;BME280;5229;41.820;23.490;2023-04-07T08:37:31;89662.63;;;33.75;10.63
10366;BME280;5229;41.820;23.490;2023-04-07T08:39:58;89662.91;;;33.86;10.83
10366;BME280;5229;41.820;23.490;2023-04-07T08:42:27;89657.09;;;33.61;10.39
10366;BME280;5229;41.820;23.490;2023-04-07T08:44:55;89661.91;;;33.57;10.48
10366;BME280;5229;41.820;23.490;2023-04-07T08:47:24;89651.41;;;33.77;10.04
10366;BME280;5229;41.820;23.490;2023-04-07T08:49:52;89648.38;;;33.84;10.54
10366;BME280;5229;41.820;23.490;2023-04-07T08:52:32;89649.84;;;33.94;10.07
10366;BME280;5229;41.820;23.490;2023-04-07T08:55:02;89641.78;;;33.94;10.54
10366;BME280;5229;41.820;23.490;2023-04-07T08:57:31;89653.66;;;34.20;10.67
10366;BME280;5229;41.820;23.490;2023-04-07T08:59:59;89649.66;;;34.48;10.49
10366;BME280;5229;41.820;23.490;2023-04-07T09:02:31;89646.16;;;34.80;10.13
10366;BME280;5229;41.820;23.490;2023-04-07T09:04:58;89661.38;;;34.92;9.53
10366;BME280;5229;41.820;23.490;2023-04-07T09:07:25;89648.66;;;35.07;10.22
10366;BME280;5229;41.820;23.490;2023-04-07T09:09:52;89656.16;;;35.26;9.54
10366;BME280;5229;41.820;23.490;2023-04-07T09:12:20;89651.94;;;35.49;9.72
10366;BME280;5229;41.820;23.490;2023-04-07T09:14:47;89645.81;;;35.25;9.40
10366;BME280;5229;41.820;23.490;2023-04-07T09:17:13;89646.66;;;35.16;9.89
10366;BME280;5229;41.820;23.490;2023-04-07T09:19:40;89643.47;;;35.18;9.32
10366;BME280;5229;41.820;23.490;2023-04-07T09:22:07;89637.03;;;35.39;9.77
10366;BME280;5229;41.820;23.490;2023-04-07T09:24:37;89646.78;;;35.36;9.72
10366;BME280;5229;41.820;23.490;2023-04-07T09:27:11;89649.59;;;35.42;9.29
10366;BME280;5229;41.820;23.490;2023-04-07T09:29:40;89650.53;;;35.53;9.24
10366;BME280;5229;41.820;23.490;2023-04-07T09:32:08;89649.06;;;35.52;8.85
10366;BME280;5229;41.820;23.490;2023-04-07T09:34:36;89650.06;;;35.40;8.75
10366;BME280;5229;41.820;23.490;2023-04-07T09:37:06;89649.59;;;35.42;9.05
10366;BME280;5229;41.820;23.490;2023-04-07T09:39:47;89648.31;;;35.14;8.94
10366;BME280;5229;41.820;23.490;2023-04-07T09:42:14;89642.28;;;34.72;9.57
10366;BME280;5229;41.820;23.490;2023-04-07T09:44:43;89638.34;;;34.35;9.21
10366;BME280;5229;41.820;23.490;2023-04-07T09:47:10;89639.84;;;33.94;9.69
10366;BME280;5229;41.820;23.490;2023-04-07T09:49:47;89636.09;;;33.83;10.35
10366;BME280;5229;41.820;23.490;2023-04-07T09:52:14;89645.16;;;33.62;10.13
10366;BME280;5229;41.820;23.490;2023-04-07T09:54:42;89642.81;;;33.46;10.48
10366;BME280;5229;41.820;23.490;2023-04-07T09:57:11;89633.97;;;33.27;10.47
10366;BME280;5229;41.820;23.490;2023-04-07T09:59:40;89634.88;;;33.42;10.42
10366;BME280;5229;41.820;23.490;2023-04-07T10:02:10;89642.72;;;33.91;10.45
10366;BME280;5229;41.820;23.490;2023-04-07T10:04:37;89638.34;;;34.26;10.52
10366;BME280;5229;41.820;23.490;2023-04-07T10:07:05;89648.09;;;34.56;10.38
10366;BME280;5229;41.820;23.490;2023-04-07T10:09:31;89648.16;;;34.70;10.46
10366;BME280;5229;41.820;23.490;2023-04-07T10:11:58;89650.22;;;34.75;10.26
10366;BME280;5229;41.820;23.490;2023-04-07T10:14:26;89655.63;;;34.75;9.38
10366;BME280;5229;41.820;23.490;2023-04-07T10:16:53;89656.63;;;34.87;10.01
10366;BME280;5229;41.820;23.490;2023-04-07T10:19:22;89654.59;;;34.96;9.70
10366;BME280;5229;41.820;23.490;2023-04-07T10:21:51;89660.81;;;34.88;9.89
10366;BME280;5229;41.820;23.490;2023-04-07T10:24:30;89646.19;;;34.71;9.90
10366;BME280;5229;41.820;23.490;2023-04-07T10:27:08;89650.03;;;34.55;9.85
10366;BME280;5229;41.820;23.490;2023-04-07T10:29:40;89646.38;;;34.44;9.79
10366;BME280;5229;41.820;23.490;2023-04-07T10:32:08;89642.13;;;34.19;9.65
10366;BME280;5229;41.820;23.490;2023-04-07T10:34:58;89645.69;;;33.84;9.67
10366;BME280;5229;41.820;23.490;2023-04-07T10:37:25;89641.44;;;33.50;10.13
10366;BME280;5229;41.820;23.490;2023-04-07T10:40:27;89639.00;;;32.35;10.11
10366;BME280;5229;41.820;23.490;2023-04-07T10:42:54;89636.59;;;30.59;10.81
10366;BME280;5229;41.820;23.490;2023-04-07T10:45:51;89629.94;;;28.72;12.42
10366;BME280;5229;41.820;23.490;2023-04-07T10:48:21;89627.06;;;27.03;12.99
10366;BME280;5229;41.820;23.490;2023-04-07T10:51:16;89623.00;;;25.67;13.67
10366;BME280;5229;41.820;23.490;2023-04-07T10:57:04;89619.09;;;23.84;15.35
10366;BME280;5229;41.820;23.490;2023-04-07T10:59:32;89620.31;;;23.22;15.67
10366;BME280;5229;41.820;23.490;2023-04-07T11:02:32;89621.47;;;22.41;15.95
10366;BME280;5229;41.820;23.490;2023-04-07T11:05:00;89617.09;;;21.75;16.46
10366;BME280;5229;41.820;23.490;2023-04-07T11:07:49;89611.41;;;21.14;16.42
10366;BME280;5229;41.820;23.490;2023-04-07T11:10:16;89604.56;;;20.85;17.08
10366;BME280;5229;41.820;23.490;2023-04-07T11:12:57;89607.53;;;20.52;17.31
10366;BME280;5229;41.820;23.490;2023-04-07T11:15:25;89611.16;;;20.23;17.29
10366;BME280;5229;41.820;23.490;2023-04-07T11:18:12;89613.91;;;19.79;18.01
10366;BME280;5229;41.820;23.490;2023-04-07T11:20:42;89608.44;;;19.44;18.29
10366;BME280;5229;41.820;23.490;2023-04-07T11:23:12;89613.47;;;19.16;18.70
10366;BME280;5229;41.820;23.490;2023-04-07T11:25:41;89613.16;;;18.81;18.75
10366;BME280;5229;41.820;23.490;2023-04-07T11:28:10;89607.44;;;18.35;19.21
10366;BME280;5229;41.820;23.490;2023-04-07T11:30:37;89612.25;;;18.00;19.68
10366;BME280;5229;41.820;23.490;2023-04-07T11:33:06;89609.00;;;17.81;19.82
10366;BME280;5229;41.820;23.490;2023-04-07T11:35:34;89609.28;;;17.46;19.59
10366;BME280;5229;41.820;23.490;2023-04-07T11:38:02;89606.94;;;17.15;19.84
10366;BME280;5229;41.820;23.490;2023-04-07T11:40:34;89603.94;;;16.90;20.49
10366;BME280;5229;41.820;23.490;2023-04-07T11:43:02;89594.63;;;16.70;20.89
10366;BME280;5229;41.820;23.490;2023-04-07T11:45:29;89598.94;;;16.59;21.41
10366;BME280;5229;41.820;23.490;2023-04-07T11:47:55;89598.00;;;16.48;21.49
10366;BME280;5229;41.820;23.490;2023-04-07T11:50:38;89588.81;;;16.39;21.59
10366;BME280;5229;41.820;23.490;2023-04-07T11:53:06;89587.31;;;16.38;21.66
10366;BME280;5229;41.820;23.490;2023-04-07T11:55:34;89592.19;;;16.39;22.10
10366;BME280;5229;41.820;23.490;2023-04-07T11:58:05;89594.81;;;16.39;22.13
10366;BME280;5229;41.820;23.490;2023-04-07T12:00:34;89590.16;;;16.29;21.74
10366;BME280;5229;41.820;23.490;2023-04-07T12:03:11;89589.22;;;16.18;22.19
10366;BME280;5229;41.820;23.490;2023-04-07T12:05:44;89590.28;;;16.17;21.96
10366;BME280;5229;41.820;23.490;2023-04-07T12:08:12;89590.44;;;16.24;22.38
10366;BME280;5229;41.820;23.490;2023-04-07T12:10:40;89592.34;;;16.27;22.56
10366;BME280;5229;41.820;23.490;2023-04-07T12:13:08;89578.25;;;16.32;21.98
10366;BME280;5229;41.820;23.490;2023-04-07T12:15:35;89578.44;;;16.42;22.29
10366;BME280;5229;41.820;23.490;2023-04-07T12:18:02;89580.91;;;16.54;22.61
10366;BME280;5229;41.820;23.490;2023-04-07T12:20:29;89584.00;;;16.60;22.17
10366;BME280;5229;41.820;23.490;2023-04-07T12:22:56;89583.34;;;16.66;22.44
10366;BME280;5229;41.820;23.490;2023-04-07T12:25:24;89581.03;;;16.61;22.32
10366;BME280;5229;41.820;23.490;2023-04-07T12:27:53;89585.38;;;16.54;21.84
10366;BME280;5229;41.820;23.490;2023-04-07T12:30:20;89590.50;;;16.47;22.19
10366;BME280;5229;41.820;23.490;2023-04-07T12:32:47;89582.97;;;16.45;22.17
10366;BME280;5229;41.820;23.490;2023-04-07T12:35:13;89575.31;;;16.37;22.65
10366;BME280;5229;41.820;23.490;2023-04-07T12:37:40;89578.84;;;16.25;22.10
10366;BME280;5229;41.820;23.490;2023-04-07T12:40:08;89576.81;;;16.15;22.79
10366;BME280;5229;41.820;23.490;2023-04-07T12:42:37;89588.19;;;16.04;22.33
10366;BME280;5229;41.820;23.490;2023-04-07T12:45:06;89583.59;;;15.97;22.87
10366;BME280;5229;41.820;23.490;2023-04-07T12:47:33;89587.75;;;16.02;23.00
10366;BME280;5229;41.820;23.490;2023-04-07T12:49:59;89593.91;;;16.09;23.04
10366;BME280;5229;41.820;23.490;2023-04-07T12:52:26;89581.75;;;16.20;22.50
10366;BME280;5229;41.820;23.490;2023-04-07T12:54:53;89588.63;;;16.28;22.73
10366;BME280;5229;41.820;23.490;2023-04-07T12:57:21;89584.16;;;16.29;22.44
10366;BME280;5229;41.820;23.490;2023-04-07T12:59:48;89581.06;;;16.23;22.17
10366;BME280;5229;41.820;23.490;2023-04-07T13:02:16;89582.41;;;16.14;22.56
10366;BME280;5229;41.820;23.490;2023-04-07T13:04:43;89583.59;;;15.97;22.48
10366;BME280;5229;41.820;23.490;2023-04-07T13:07:11;89576.84;;;15.77;22.76
10366;BME280;5229;41.820;23.490;2023-04-07T13:09:38;89569.75;;;15.59;22.62
10366;BME280;5229;41.820;23.490;2023-04-07T13:12:05;89576.56;;;15.44;22.99
10366;BME280;5229;41.820;23.490;2023-04-07T13:14:32;89575.28;;;15.38;22.99